Time;durP1;ratioP1;P1;durP2;ratioP2;P2;SDS_P1;SDS_P2;PMS_P1;PMS_P2;Temp;Humidity;BMP_temperature;BMP_pressure;BME280_temperature;BME280_humidity;BME280_pressure;Samples;Min_cycle;Max_cycle;Signal;HPM_P1;HPM_P2
2022/03/05 00:00:08;;;;;;;27.85;10.77;;;;;;;-1.37;61.69;96712.63;2077637;28;20225;-58
2022/03/05 00:01:11;;;;;;;27.88;10.40;;;;;;;-1.48;61.68;96710.25;2071659;28;20205;-58
2022/03/05 00:02:13;;;;;;;24.50;11.50;;;;;;;-1.43;61.87;96713.56;2071847;28;20241;-58
2022/03/05 00:03:16;;;;;;;22.85;11.00;;;;;;;-1.42;61.99;96708.41;2074977;28;20361;-58
2022/03/05 00:04:17;;;;;;;27.38;11.65;;;;;;;-1.55;62.51;96708.69;2076079;28;20198;-59
2022/03/05 00:05:19;;;;;;;24.30;11.18;;;;;;;-1.68;62.96;96708.09;2077023;28;20584;-59
2022/03/05 00:06:20;;;;;;;22.25;11.40;;;;;;;-1.70;63.31;96705.53;2076194;28;20274;-58
2022/03/05 00:07:22;;;;;;;23.13;11.02;;;;;;;-1.85;63.93;96704.09;2077091;28;20210;-58
2022/03/05 00:08:24;;;;;;;25.65;11.95;;;;;;;-1.88;63.80;96708.41;2075053;28;20197;-58
2022/03/05 00:09:26;;;;;;;28.25;12.60;;;;;;;-1.84;63.32;96698.09;2076577;28;20221;-59
2022/03/05 00:10:27;;;;;;;30.52;12.27;;;;;;;-1.88;63.83;96703.28;2076346;28;20327;-59
2022/03/05 00:11:29;;;;;;;22.33;11.02;;;;;;;-1.94;63.63;96711.97;2073922;28;20190;-58
2022/03/05 00:12:30;;;;;;;26.80;10.68;;;;;;;-1.97;64.02;96704.31;2076231;28;20205;-58
2022/03/05 00:13:32;;;;;;;18.33;10.55;;;;;;;-1.97;63.95;96704.31;2076850;28;20205;-59
2022/03/05 00:14:33;;;;;;;21.98;10.50;;;;;;;-2.00;63.84;96701.78;2078370;28;20199;-58
2022/03/05 00:15:35;;;;;;;25.30;11.00;;;;;;;-2.04;64.22;96710.41;2077847;28;20228;-58
2022/03/05 00:16:36;;;;;;;22.33;10.35;;;;;;;-1.99;63.82;96700.94;2077581;28;20224;-59
2022/03/05 00:17:38;;;;;;;21.35;11.32;;;;;;;-1.91;63.70;96711.91;2075102;28;20198;-59
2022/03/05 00:18:40;;;;;;;23.75;9.80;;;;;;;-1.95;63.37;96712.81;2076173;28;20199;-58
2022/03/05 00:19:41;;;;;;;25.08;11.27;;;;;;;-1.92;63.38;96701.66;2073404;28;20598;-59
2022/03/05 00:20:44;;;;;;;23.48;11.15;;;;;;;-1.95;63.44;96702.56;2075398;28;20236;-58
2022/03/05 00:21:46;;;;;;;25.15;11.25;;;;;;;-1.90;63.30;96700.78;2077036;28;20522;-58
2022/03/05 00:22:48;;;;;;;22.38;9.07;;;;;;;-1.67;62.31;96705.47;2075780;28;20197;-58
2022/03/05 00:23:49;;;;;;;19.98;9.35;;;;;;;-1.94;62.89;96704.28;2075607;28;20198;-59
2022/03/05 00:24:50;;;;;;;20.85;9.45;;;;;;;-1.87;62.83;96705.00;2076215;28;20209;-59
2022/03/05 00:25:52;;;;;;;21.58;8.80;;;;;;;-1.85;63.15;96706.66;2078029;28;20228;-58
2022/03/05 00:26:54;;;;;;;18.85;8.65;;;;;;;-1.96;63.66;96708.59;2076398;28;20203;-59
2022/03/05 00:27:55;;;;;;;25.40;9.80;;;;;;;-1.94;63.45;96717.09;2076064;28;20201;-58
2022/03/05 00:28:57;;;;;;;24.38;9.75;;;;;;;-2.13;63.71;96715.72;2076547;28;20652;-59
2022/03/05 00:29:58;;;;;;;25.38;11.10;;;;;;;-2.04;63.67;96712.97;2078264;28;20723;-58
2022/03/05 00:31:00;;;;;;;16.77;9.65;;;;;;;-2.17;63.81;96712.34;2077836;28;20226;-58
2022/03/05 00:32:05;;;;;;;17.77;9.25;;;;;;;-2.09;64.09;96715.63;2073503;28;20193;-59
2022/03/05 00:33:07;;;;;;;23.50;10.05;;;;;;;-2.04;63.07;96706.16;2075335;28;20198;-58
2022/03/05 00:34:08;;;;;;;24.83;9.43;;;;;;;-2.02;63.36;96713.78;2075867;28;20209;-59
2022/03/05 00:35:10;;;;;;;20.17;9.82;;;;;;;-2.01;63.33;96710.38;2075043;28;20218;-58
2022/03/05 00:36:12;;;;;;;22.02;9.07;;;;;;;-2.01;63.33;96710.38;2074923;28;20647;-58
2022/03/05 00:37:13;;;;;;;20.33;9.75;;;;;;;-2.11;63.78;96706.28;2076315;28;20512;-58
2022/03/05 00:38:15;;;;;;;17.17;8.80;;;;;;;-2.20;64.14;96702.97;2074888;28;20212;-58
2022/03/05 00:39:16;;;;;;;22.75;9.75;;;;;;;-2.34;64.65;96710.06;2078065;28;20544;-59
2022/03/05 00:40:18;;;;;;;17.52;8.80;;;;;;;-2.29;64.56;96710.84;2076168;28;20592;-58
2022/03/05 00:41:20;;;;;;;19.08;9.10;;;;;;;-2.29;64.79;96713.41;2075596;28;20547;-58
2022/03/05 00:42:21;;;;;;;22.27;9.50;;;;;;;-2.28;64.56;96712.50;2077663;28;20201;-64
2022/03/05 00:43:23;;;;;;;16.42;9.15;;;;;;;-2.34;64.79;96715.19;2075855;28;20194;-63
2022/03/05 00:44:24;;;;;;;20.00;9.30;;;;;;;-2.34;64.62;96714.34;2075824;28;20592;-63
2022/03/05 00:45:26;;;;;;;18.42;8.63;;;;;;;-2.30;64.35;96714.25;2075975;28;20245;-63
2022/03/05 00:46:27;;;;;;;19.38;9.25;;;;;;;-2.21;64.18;96706.41;2076487;28;20294;-63
2022/03/05 00:47:29;;;;;;;16.25;8.70;;;;;;;-2.26;64.60;96713.34;2075799;28;20193;-63
2022/03/05 00:48:31;;;;;;;17.75;8.48;;;;;;;-2.30;64.87;96709.13;2077935;28;20197;-64
2022/03/05 00:49:32;;;;;;;16.90;8.40;;;;;;;-2.32;64.68;96715.16;2075716;28;20206;-63
2022/03/05 00:50:34;;;;;;;24.63;9.55;;;;;;;-2.38;64.50;96709.25;2077050;28;20236;-64
2022/03/05 00:51:35;;;;;;;20.35;9.82;;;;;;;-2.35;64.40;96712.63;2075427;28;20198;-63
2022/03/05 00:52:37;;;;;;;18.90;9.40;;;;;;;-2.33;64.49;96719.47;2077960;28;20198;-63
2022/03/05 00:53:39;;;;;;;20.23;8.85;;;;;;;-2.46;64.78;96720.53;2076258;28;20198;-64
2022/03/05 00:54:40;;;;;;;20.10;8.88;;;;;;;-2.46;64.92;96720.53;2076803;28;20209;-63
2022/03/05 00:55:44;;;;;;;18.13;9.15;;;;;;;-2.31;64.60;96717.72;2076435;28;20255;-64
2022/03/05 00:56:46;;;;;;;25.48;9.85;;;;;;;-2.53;65.00;96716.34;2074121;28;20210;-63
2022/03/05 00:57:47;;;;;;;16.90;9.18;;;;;;;-2.65;65.09;96715.66;2076670;28;20204;-64
2022/03/05 00:58:48;;;;;;;15.43;9.02;;;;;;;-2.59;65.28;96718.16;2075715;28;20208;-63
2022/03/05 00:59:50;;;;;;;23.25;10.95;;;;;;;-2.53;65.22;96721.47;2074294;28;20565;-63
2022/03/05 01:00:52;;;;;;;21.67;10.23;;;;;;;-2.51;64.77;96710.34;2076569;28;20544;-63
2022/03/05 01:01:56;;;;;;;19.80;10.13;;;;;;;-2.54;65.14;96720.63;2074896;28;20197;-63
2022/03/05 01:02:58;;;;;;;19.13;10.13;;;;;;;-2.56;65.30;96719.81;2076426;28;20201;-63
2022/03/05 01:03:59;;;;;;;20.65;9.77;;;;;;;-2.60;65.34;96718.16;2072078;28;20260;-63
2022/03/05 01:05:01;;;;;;;22.65;9.30;;;;;;;-2.58;65.11;96717.25;2075783;28;20217;-64
2022/03/05 01:06:04;;;;;;;23.40;10.75;;;;;;;-2.61;65.12;96727.59;2075210;28;20201;-64
2022/03/05 01:07:06;;;;;;;21.77;9.75;;;;;;;-2.62;65.54;96720.75;2077008;28;20204;-64
2022/03/05 01:08:09;;;;;;;23.80;9.90;;;;;;;-2.63;65.58;96720.75;2077399;28;20215;-64
2022/03/05 01:09:10;;;;;;;19.85;8.75;;;;;;;-2.59;65.37;96720.72;2076428;28;20229;-64
2022/03/05 01:10:11;;;;;;;24.98;9.57;;;;;;;-2.60;65.21;96715.59;2077920;28;20221;-63
2022/03/05 01:11:16;;;;;;;16.58;8.10;;;;;;;-2.56;65.23;96724.09;2078175;28;20198;-64
2022/03/05 01:12:18;;;;;;;25.10;9.35;;;;;;;-2.65;65.42;96714.81;2077059;28;20290;-63
2022/03/05 01:13:19;;;;;;;16.40;8.23;;;;;;;-2.49;65.02;96723.13;2079794;28;20296;-64
2022/03/05 01:14:21;;;;;;;19.00;9.73;;;;;;;-2.49;64.78;96711.16;2075591;28;20198;-63
2022/03/05 01:15:23;;;;;;;27.27;10.85;;;;;;;-2.68;65.14;96717.44;2078042;28;20216;-63
2022/03/05 01:16:24;;;;;;;18.17;8.00;;;;;;;-2.72;65.22;96708.09;2077543;28;20221;-64
2022/03/05 01:17:26;;;;;;;19.38;8.98;;;;;;;-2.79;65.44;96707.31;2078338;28;20197;-64
2022/03/05 01:18:27;;;;;;;23.80;10.35;;;;;;;-2.79;65.76;96712.44;2076480;28;20206;-64
2022/03/05 01:19:29;;;;;;;15.63;9.20;;;;;;;-2.69;65.14;96714.00;2076240;28;20201;-63
2022/03/05 01:20:30;;;;;;;24.48;9.73;;;;;;;-2.75;65.90;96713.25;2074638;28;20218;-63
2022/03/05 01:21:32;;;;;;;18.88;9.43;;;;;;;-2.72;65.67;96713.22;2076765;28;20648;-63
2022/03/05 01:22:34;;;;;;;23.05;9.90;;;;;;;-2.82;66.07;96713.34;2077769;28;20202;-63
2022/03/05 01:23:35;;;;;;;25.33;10.18;;;;;;;-2.91;66.19;96718.59;2078406;28;20205;-63
2022/03/05 01:24:37;;;;;;;18.05;9.65;;;;;;;-3.00;66.76;96709.31;2077740;28;20198;-63
2022/03/05 01:25:44;;;;;;;17.75;9.40;;;;;;;-3.04;67.21;96707.69;2077566;28;20191;-63
2022/03/05 01:26:46;;;;;;;17.40;8.60;;;;;;;-3.16;66.71;96696.72;2077772;28;20216;-63
2022/03/05 01:27:47;;;;;;;17.67;9.45;;;;;;;-3.20;67.07;96704.44;2077708;28;20221;-63
2022/03/05 01:28:49;;;;;;;15.02;8.23;;;;;;;-3.20;67.11;96698.47;2079735;28;20710;-63
2022/03/05 01:29:50;;;;;;;21.35;10.52;;;;;;;-3.20;67.03;96690.78;2079911;28;20202;-64
2022/03/05 01:30:52;;;;;;;20.15;9.57;;;;;;;-3.20;66.96;96698.47;2078104;28;20214;-63
2022/03/05 01:31:53;;;;;;;22.52;9.85;;;;;;;-3.27;67.06;96697.72;2077497;28;20198;-63
2022/03/05 01:32:55;;;;;;;22.48;11.27;;;;;;;-3.24;67.21;96696.81;2078237;28;20197;-63
2022/03/05 01:33:56;;;;;;;23.50;10.25;;;;;;;-3.22;67.11;96695.09;2076962;28;20912;-64
2022/03/05 01:34:58;;;;;;;21.38;10.02;;;;;;;-3.19;67.20;96695.91;2075944;28;20606;-63
2022/03/05 01:35:59;;;;;;;20.35;9.95;;;;;;;-3.08;66.75;96702.59;2078716;28;20197;-63
2022/03/05 01:37:01;;;;;;;19.67;9.27;;;;;;;-3.15;67.01;96696.72;2078599;28;20660;-63
2022/03/05 01:38:02;;;;;;;18.73;10.00;;;;;;;-3.18;67.08;96702.69;2077224;28;20202;-63
2022/03/05 01:39:04;;;;;;;24.17;10.48;;;;;;;-3.03;66.38;96705.94;2077674;28;20500;-63
2022/03/05 01:40:06;;;;;;;26.25;9.77;;;;;;;-2.97;65.97;96698.19;2078011;28;20236;-63
2022/03/05 01:41:07;;;;;;;20.73;9.57;;;;;;;-2.96;66.51;96704.97;2075795;28;20651;-63
2022/03/05 01:42:09;;;;;;;19.67;10.07;;;;;;;-3.02;66.26;96688.00;2075256;28;20205;-64
2022/03/05 01:43:10;;;;;;;20.00;10.73;;;;;;;-2.90;66.26;96698.94;2076845;28;20205;-64
2022/03/05 01:44:12;;;;;;;21.80;9.60;;;;;;;-3.00;66.90;96693.94;2078982;28;20640;-63
2022/03/05 01:45:13;;;;;;;21.35;10.85;;;;;;;-3.19;67.11;96693.34;2076851;28;20565;-64
2022/03/05 01:46:26;;;;;;;25.23;10.35;;;;;;;-3.22;67.13;96693.38;2075475;28;20212;-63
2022/03/05 01:47:28;;;;;;;24.52;10.45;;;;;;;-3.16;66.98;96697.56;2077740;28;20293;-64
2022/03/05 01:48:29;;;;;;;26.63;11.05;;;;;;;-3.10;67.10;96696.63;2079848;28;20193;-63
2022/03/05 01:49:31;;;;;;;24.13;11.15;;;;;;;-3.10;66.69;96694.91;2077691;28;20202;-64
2022/03/05 01:50:33;;;;;;;29.15;10.50;;;;;;;-2.92;66.85;96700.66;2075464;28;20240;-64
2022/03/05 01:51:34;;;;;;;24.67;11.52;;;;;;;-3.02;66.46;96698.25;2076132;28;20221;-64
2022/03/05 01:52:36;;;;;;;22.40;10.30;;;;;;;-3.01;66.61;96696.53;2076657;28;20198;-64
2022/03/05 01:53:37;;;;;;;26.65;11.30;;;;;;;-3.10;66.57;96701.75;2077315;28;20723;-64
2022/03/05 01:54:40;;;;;;;23.35;11.15;;;;;;;-3.21;66.92;96691.66;2077129;28;20194;-64
2022/03/05 01:55:43;;;;;;;21.70;10.52;;;;;;;-3.14;67.06;96698.38;2077763;28;20248;-64
2022/03/05 01:56:45;;;;;;;25.10;10.38;;;;;;;-3.05;66.64;96698.28;2075711;28;20194;-64
2022/03/05 01:57:46;;;;;;;17.75;10.02;;;;;;;-3.07;66.65;96694.88;2077584;28;20201;-64
2022/03/05 01:58:49;;;;;;;21.42;9.45;;;;;;;-3.10;67.02;96696.63;2076969;28;20216;-64
2022/03/05 01:59:50;;;;;;;21.48;10.15;;;;;;;-3.07;66.76;96705.13;2076392;28;20654;-64
2022/03/05 02:00:52;;;;;;;20.75;8.93;;;;;;;-3.13;67.09;96701.81;2077354;28;20194;-63
2022/03/05 02:01:54;;;;;;;23.00;9.20;;;;;;;-3.20;67.30;96691.63;2076140;28;20209;-64
2022/03/05 02:02:56;;;;;;;26.17;10.60;;;;;;;-3.12;67.13;96703.50;2074887;28;20284;-64
2022/03/05 02:03:59;;;;;;;20.30;9.23;;;;;;;-3.08;66.67;96700.88;2075485;28;20200;-64
2022/03/05 02:05:01;;;;;;;21.10;10.32;;;;;;;-2.93;66.11;96698.97;2075731;28;20581;-64
2022/03/05 02:06:03;;;;;;;20.30;9.90;;;;;;;-3.09;66.05;96699.19;2075507;28;20690;-64
2022/03/05 02:07:04;;;;;;;25.63;11.10;;;;;;;-3.13;65.90;96694.13;2077769;28;20820;-63
2022/03/05 02:08:06;;;;;;;16.58;8.15;;;;;;;-3.13;66.00;96700.09;2077038;28;20201;-63
2022/03/05 02:09:08;;;;;;;20.65;9.02;;;;;;;-3.20;66.04;96698.47;2077028;28;20233;-64
2022/03/05 02:10:09;;;;;;;19.40;9.52;;;;;;;-3.25;66.50;96698.53;2076357;28;20221;-64
2022/03/05 02:11:11;;;;;;;31.45;9.07;;;;;;;-3.32;66.68;96680.72;2076544;28;20604;-63
2022/03/05 02:12:12;;;;;;;18.20;8.80;;;;;;;-3.26;66.64;96696.00;2075800;28;20205;-64
2022/03/05 02:13:14;;;;;;;21.73;10.57;;;;;;;-3.26;66.61;96696.84;2076822;28;20707;-63
2022/03/05 02:14:19;;;;;;;19.38;9.18;;;;;;;-3.23;67.00;96698.53;2077082;28;20736;-64
2022/03/05 02:15:20;;;;;;;18.20;9.25;;;;;;;-3.35;66.86;96702.09;2077463;28;20213;-63
2022/03/05 02:16:22;;;;;;;20.48;9.40;;;;;;;-3.40;67.10;96701.28;2077025;28;20225;-64
2022/03/05 02:17:26;;;;;;;20.38;8.80;;;;;;;-3.35;67.38;96696.09;2076409;28;20193;-64
2022/03/05 02:18:27;;;;;;;17.27;8.82;;;;;;;-3.35;67.33;96704.66;2075801;28;20195;-64
2022/03/05 02:19:29;;;;;;;25.27;10.43;;;;;;;-3.39;67.67;96698.72;2078405;28;20201;-64
2022/03/05 02:20:30;;;;;;;21.48;10.73;;;;;;;-3.50;67.65;96699.72;2075276;28;20228;-64
2022/03/05 02:21:32;;;;;;;28.55;10.20;;;;;;;-3.60;67.90;96693.84;2077659;28;20197;-64
2022/03/05 02:22:33;;;;;;;21.42;9.70;;;;;;;-3.56;68.10;96692.94;2077506;28;20197;-64
2022/03/05 02:23:35;;;;;;;21.08;10.07;;;;;;;-3.49;67.70;96694.59;2077144;28;20202;-63
2022/03/05 02:24:38;;;;;;;19.45;9.40;;;;;;;-3.53;68.03;96697.19;2074730;28;20216;-62
2022/03/05 02:25:58;;;;;;;21.92;9.70;;;;;;;-3.38;67.18;96690.16;2073878;28;20632;-64
2022/03/05 02:27:04;;;;;;;22.08;10.02;;;;;;;-3.52;67.36;96702.28;2074043;28;20197;-64
2022/03/05 02:28:06;;;;;;;28.58;10.48;;;;;;;-3.49;67.58;96698.84;2079089;28;20189;-64
2022/03/05 02:29:07;;;;;;;23.90;10.93;;;;;;;-3.45;67.45;96701.34;2078906;28;20551;-64
2022/03/05 02:30:09;;;;;;;28.65;9.63;;;;;;;-3.47;67.49;96700.53;2076725;28;20236;-64
2022/03/05 02:31:11;;;;;;;27.67;11.82;;;;;;;-3.49;67.50;96698.84;2075815;28;20217;-64
2022/03/05 02:32:13;;;;;;;23.40;10.50;;;;;;;-3.49;67.75;96694.59;2077142;28;20209;-64
2022/03/05 02:33:15;;;;;;;16.73;9.77;;;;;;;-3.40;67.59;96703.84;2077259;28;20204;-64
2022/03/05 02:34:16;;;;;;;21.05;10.43;;;;;;;-3.26;67.28;96701.97;2077154;28;20210;-64
2022/03/05 02:35:18;;;;;;;24.45;10.60;;;;;;;-3.37;67.49;96693.59;2076993;28;20229;-63
2022/03/05 02:36:21;;;;;;;25.00;10.45;;;;;;;-3.46;68.46;96688.56;2077991;28;20209;-63
2022/03/05 02:37:22;;;;;;;23.38;10.50;;;;;;;-3.35;68.01;96701.22;2078454;28;20193;-64
2022/03/05 02:38:24;;;;;;;25.15;9.77;;;;;;;-3.54;67.96;96690.38;2077171;28;20190;-63
2022/03/05 02:39:26;;;;;;;25.45;11.43;;;;;;;-3.56;68.45;96697.22;2077541;28;20200;-64
2022/03/05 02:40:27;;;;;;;25.90;10.60;;;;;;;-3.49;68.69;96693.72;2076628;28;20557;-64
2022/03/05 02:41:29;;;;;;;23.15;10.82;;;;;;;-3.48;68.52;96688.56;2076608;28;20198;-63
2022/03/05 02:42:30;;;;;;;19.90;10.48;;;;;;;-3.54;68.83;96696.34;2075591;28;20204;-63
2022/03/05 02:43:32;;;;;;;29.35;11.80;;;;;;;-3.58;69.07;96692.13;2074321;28;20209;-63
2022/03/05 02:44:34;;;;;;;26.45;12.98;;;;;;;-3.70;70.01;96689.69;2075360;28;20198;-63
2022/03/05 02:45:36;;;;;;;25.63;11.20;;;;;;;-3.67;69.36;96687.94;2074266;28;20241;-63
2022/03/05 02:46:37;;;;;;;21.85;10.40;;;;;;;-3.69;69.58;96686.25;2074444;28;20197;-63
2022/03/05 02:47:39;;;;;;;21.92;11.05;;;;;;;-3.69;69.57;96683.72;2076943;28;20209;-63
2022/03/05 02:48:40;;;;;;;21.00;9.90;;;;;;;-3.72;69.60;96691.41;2075550;28;20205;-63
2022/03/05 02:49:42;;;;;;;24.33;10.70;;;;;;;-3.62;69.04;96686.19;2072807;28;20205;-64
2022/03/05 02:50:45;;;;;;;19.85;9.88;;;;;;;-3.58;69.04;96690.41;2075080;28;20214;-63
2022/03/05 02:51:47;;;;;;;22.52;9.40;;;;;;;-3.70;68.98;96687.97;2076656;28;20214;-63
2022/03/05 02:52:48;;;;;;;21.63;9.68;;;;;;;-3.83;69.46;96682.13;2077201;28;20193;-63
2022/03/05 02:53:50;;;;;;;23.23;8.75;;;;;;;-3.87;69.61;96687.31;2076346;28;20655;-63
2022/03/05 02:54:51;;;;;;;21.30;9.70;;;;;;;-3.83;69.41;96687.25;2075885;28;20202;-63
2022/03/05 02:55:53;;;;;;;20.45;10.45;;;;;;;-3.60;68.52;96684.44;2077288;28;20202;-63
2022/03/05 02:56:54;;;;;;;18.58;9.30;;;;;;;-3.58;68.06;96681.88;2076969;28;20198;-63
2022/03/05 02:57:55;;;;;;;14.77;8.20;;;;;;;-3.54;68.10;96691.22;2074662;28;20205;-63
2022/03/05 02:58:57;;;;;;;22.77;9.48;;;;;;;-3.62;68.64;96687.91;2075178;28;20548;-63
2022/03/05 02:59:58;;;;;;;16.67;8.75;;;;;;;-3.89;69.25;96686.50;2076363;28;20222;-63
2022/03/05 03:01:00;;;;;;;16.42;8.45;;;;;;;-3.90;69.44;96680.53;2074895;28;20239;-63
2022/03/05 03:02:02;;;;;;;15.93;8.52;;;;;;;-3.83;68.98;96689.81;2079239;28;20198;-63
2022/03/05 03:03:04;;;;;;;16.65;9.52;;;;;;;-3.86;69.13;96684.75;2077576;28;20189;-63
2022/03/05 03:04:06;;;;;;;19.27;9.23;;;;;;;-3.68;68.64;96693.09;2077081;28;20640;-64
2022/03/05 03:05:07;;;;;;;21.13;9.60;;;;;;;-3.69;68.45;96693.94;2076405;28;20222;-63
2022/03/05 03:06:09;;;;;;;22.20;9.35;;;;;;;-3.76;68.93;96693.19;2077869;28;20208;-63
2022/03/05 03:07:10;;;;;;;17.75;8.98;;;;;;;-3.79;68.82;96688.06;2073650;28;20201;-64
2022/03/05 03:08:12;;;;;;;17.15;8.25;;;;;;;-3.86;69.07;96687.31;2078715;28;20236;-63
2022/03/05 03:09:13;;;;;;;24.05;9.43;;;;;;;-3.86;69.11;96687.31;2077224;28;20229;-63
2022/03/05 03:10:15;;;;;;;18.02;9.55;;;;;;;-3.71;69.14;96691.41;2077627;28;20225;-63
2022/03/05 03:11:17;;;;;;;25.02;10.05;;;;;;;-3.70;68.77;96689.69;2076055;28;20193;-64
2022/03/05 03:12:20;;;;;;;19.30;9.35;;;;;;;-3.63;68.71;96697.28;2076469;28;20197;-63
2022/03/05 03:13:22;;;;;;;19.52;10.30;;;;;;;-3.72;68.59;96688.84;2077126;28;20201;-63
2022/03/05 03:14:24;;;;;;;20.00;8.93;;;;;;;-3.76;68.92;96690.63;2072635;28;20202;-64
2022/03/05 03:15:26;;;;;;;17.98;8.85;;;;;;;-3.72;68.85;96691.41;2073406;28;20218;-63
2022/03/05 03:16:29;;;;;;;20.13;8.57;;;;;;;-3.77;68.81;96687.19;2076139;28;20542;-64
2022/03/05 03:17:39;;;;;;;16.25;8.00;;;;;;;-3.86;69.04;96689.88;2079686;28;20800;-63
2022/03/05 03:18:40;;;;;;;19.48;8.90;;;;;;;-3.88;69.25;96689.03;2075599;28;20312;-63
2022/03/05 03:19:42;;;;;;;17.15;8.68;;;;;;;-3.86;68.94;96692.44;2076401;28;20190;-64
2022/03/05 03:20:44;;;;;;;19.38;8.93;;;;;;;-3.91;69.12;96689.06;2076812;28;20208;-63
2022/03/05 03:21:46;;;;;;;19.63;9.73;;;;;;;-3.94;69.40;96701.91;2076517;28;20193;-64
2022/03/05 03:22:47;;;;;;;18.02;8.20;;;;;;;-3.89;69.23;96692.44;2076463;28;20240;-63
2022/03/05 03:23:49;;;;;;;15.63;7.68;;;;;;;-3.86;68.65;96694.97;2076902;28;20206;-63
2022/03/05 03:24:50;;;;;;;27.95;9.05;;;;;;;-4.02;68.93;96703.66;2076189;28;20201;-63
2022/03/05 03:25:52;;;;;;;15.88;8.52;;;;;;;-4.15;69.40;96699.53;2079463;28;20201;-63
2022/03/05 03:26:54;;;;;;;18.08;8.70;;;;;;;-4.13;69.70;96700.38;2079422;28;20213;-63
2022/03/05 03:27:55;;;;;;;14.73;7.80;;;;;;;-4.13;69.61;96702.94;2076634;28;20212;-63
2022/03/05 03:28:56;;;;;;;14.88;8.30;;;;;;;-4.15;69.38;96697.00;2071306;28;20205;-63
2022/03/05 03:29:58;;;;;;;17.88;9.40;;;;;;;-4.12;69.81;96694.38;2077346;28;20225;-63
2022/03/05 03:31:00;;;;;;;15.40;8.55;;;;;;;-4.17;70.50;96704.66;2077078;28;20224;-63
2022/03/05 03:32:02;;;;;;;19.95;7.93;;;;;;;-4.18;69.96;96696.13;2076389;28;20210;-63
2022/03/05 03:33:04;;;;;;;21.55;9.60;;;;;;;-4.16;69.90;96701.22;2076163;28;20208;-63
2022/03/05 03:34:05;;;;;;;20.55;9.40;;;;;;;-4.10;69.79;96705.44;2078360;28;20682;-63
2022/03/05 03:35:08;;;;;;;21.20;8.38;;;;;;;-4.09;69.81;96708.00;2074358;28;20244;-63
2022/03/05 03:36:09;;;;;;;19.25;9.10;;;;;;;-4.15;69.94;96700.38;2076973;28;20209;-63
2022/03/05 03:37:11;;;;;;;17.60;9.30;;;;;;;-4.21;70.13;96703.00;2077055;28;20205;-63
2022/03/05 03:38:12;;;;;;;13.95;8.35;;;;;;;-4.26;70.26;96699.63;2076351;28;20861;-63
2022/03/05 03:39:14;;;;;;;23.52;10.00;;;;;;;-4.29;70.52;96697.94;2076919;28;20194;-64
2022/03/05 03:40:17;;;;;;;16.23;8.52;;;;;;;-4.24;70.44;96701.31;2074462;28;20228;-63
2022/03/05 03:41:18;;;;;;;20.77;9.73;;;;;;;-4.10;70.25;96700.34;2075329;28;20202;-64
2022/03/05 03:42:20;;;;;;;21.85;9.52;;;;;;;-4.10;69.60;96702.88;2076765;28;20197;-63
2022/03/05 03:43:21;;;;;;;18.35;9.15;;;;;;;-4.02;69.38;96693.44;2077341;28;20208;-64
2022/03/05 03:44:24;;;;;;;19.23;9.48;;;;;;;-4.05;69.51;96703.72;2077190;28;20186;-64
2022/03/05 03:45:26;;;;;;;25.42;9.23;;;;;;;-4.18;69.75;96696.13;2075566;28;20300;-63
2022/03/05 03:46:27;;;;;;;21.40;9.30;;;;;;;-4.24;70.13;96691.06;2074670;28;20201;-63
2022/03/05 03:47:29;;;;;;;20.75;8.93;;;;;;;-4.18;70.02;96697.84;2077018;28;20201;-63
2022/03/05 03:48:30;;;;;;;22.80;9.25;;;;;;;-4.17;70.02;96705.50;2075954;28;20204;-63
2022/03/05 03:49:32;;;;;;;18.15;9.35;;;;;;;-4.23;69.68;96700.44;2076921;28;20201;-63
2022/03/05 03:50:34;;;;;;;18.60;9.50;;;;;;;-4.26;69.94;96707.28;2076278;28;20627;-64
2022/03/05 03:51:35;;;;;;;24.63;8.75;;;;;;;-4.33;69.98;96697.97;2076099;28;20268;-65
2022/03/05 03:52:37;;;;;;;26.20;9.82;;;;;;;-4.34;70.25;96704.81;2073648;28;20638;-64
2022/03/05 03:53:39;;;;;;;21.48;10.65;;;;;;;-4.25;69.92;96698.78;2076279;28;20236;-64
2022/03/05 03:54:41;;;;;;;19.23;9.10;;;;;;;-4.31;70.09;96702.22;2078612;28;20198;-64
2022/03/05 03:55:44;;;;;;;20.42;8.98;;;;;;;-4.31;70.05;96707.34;2074220;28;20743;-65
2022/03/05 03:56:45;;;;;;;24.40;9.65;;;;;;;-4.29;69.61;96705.63;2075093;28;20229;-63
2022/03/05 03:57:47;;;;;;;22.50;9.77;;;;;;;-4.41;69.99;96705.72;2076079;28;20209;-64
2022/03/05 03:58:49;;;;;;;21.88;9.35;;;;;;;-4.49;70.43;96713.44;2076821;28;20205;-64
2022/03/05 03:59:52;;;;;;;21.88;9.68;;;;;;;-4.49;70.56;96712.59;2076287;28;20672;-64
2022/03/05 04:00:53;;;;;;;18.40;9.18;;;;;;;-4.53;70.46;96709.22;2075340;28;20198;-63
2022/03/05 04:01:55;;;;;;;18.27;8.57;;;;;;;-4.62;70.93;96717.81;2075645;28;20288;-63
2022/03/05 04:02:57;;;;;;;18.92;9.13;;;;;;;-4.65;71.00;96711.88;2074625;28;20193;-64
2022/03/05 04:03:58;;;;;;;17.02;8.65;;;;;;;-4.57;70.98;96717.75;2076180;28;20194;-63
2022/03/05 04:05:00;;;;;;;20.05;9.85;;;;;;;-4.54;70.53;96712.63;2074426;28;20218;-64
2022/03/05 04:06:01;;;;;;;21.10;9.55;;;;;;;-4.58;70.61;96698.19;2075602;28;20198;-64
2022/03/05 04:09:43;;;;;;;16.17;8.65;;;;;;;-4.61;70.91;96705.88;2077485;28;20223;-64
2022/03/05 04:10:44;;;;;;;18.02;9.00;;;;;;;-4.58;70.59;96709.25;2078606;28;20197;-64
2022/03/05 04:11:45;;;;;;;15.18;7.97;;;;;;;-4.46;70.21;96710.03;2077852;28;20204;-64
2022/03/05 04:12:47;;;;;;;18.88;7.78;;;;;;;-4.45;69.83;96712.56;2074846;28;20664;-64
2022/03/05 04:13:49;;;;;;;19.25;8.98;;;;;;;-4.51;69.89;96707.47;2075190;28;20220;-64
2022/03/05 04:14:50;;;;;;;15.80;8.05;;;;;;;-4.63;70.41;96715.25;2075349;28;20202;-64
2022/03/05 04:15:52;;;;;;;16.95;8.20;;;;;;;-4.64;70.96;96709.31;2076318;28;20208;-64
2022/03/05 04:16:53;;;;;;;17.65;8.77;;;;;;;-4.61;71.02;96709.25;2075258;28;20541;-64
2022/03/05 04:17:55;;;;;;;17.88;9.10;;;;;;;-4.85;71.32;96705.19;2077082;28;20291;-65
2022/03/05 04:18:56;;;;;;;20.65;8.88;;;;;;;-4.89;71.23;96707.78;2076593;28;20561;-64
2022/03/05 04:19:58;;;;;;;17.75;9.40;;;;;;;-4.73;71.03;96704.25;2075085;28;20218;-64
2022/03/05 04:21:01;;;;;;;19.80;8.27;;;;;;;-4.64;70.58;96703.34;2077862;28;20203;-64
2022/03/05 04:22:03;;;;;;;16.90;9.27;;;;;;;-4.63;70.31;96710.13;2074211;28;20200;-64
2022/03/05 04:23:04;;;;;;;21.30;9.15;;;;;;;-4.57;70.05;96704.97;2074776;28;20201;-64
2022/03/05 04:24:06;;;;;;;17.52;8.60;;;;;;;-4.62;70.37;96707.59;2076311;28;20201;-64
2022/03/05 04:25:08;;;;;;;20.23;8.60;;;;;;;-4.59;70.51;96707.56;2077805;28;20235;-64
2022/03/05 04:26:09;;;;;;;17.73;8.35;;;;;;;-4.51;70.05;96710.03;2076630;28;21101;-65
2022/03/05 04:27:11;;;;;;;20.20;8.93;;;;;;;-4.49;69.59;96702.38;2076882;28;20656;-64
2022/03/05 04:28:12;;;;;;;25.52;9.38;;;;;;;-4.39;69.06;96699.75;2077289;28;20190;-65
2022/03/05 04:29:13;;;;;;;20.33;8.77;;;;;;;-4.54;69.80;96710.09;2074913;28;20196;-64
2022/03/05 04:30:15;;;;;;;17.50;8.65;;;;;;;-4.63;70.44;96710.97;2075952;28;20236;-65
2022/03/05 04:31:17;;;;;;;24.13;9.10;;;;;;;-4.53;70.24;96711.75;2076730;28;20204;-64
2022/03/05 04:32:18;;;;;;;17.80;9.00;;;;;;;-4.55;70.43;96715.19;2077170;28;20664;-64
2022/03/05 04:33:20;;;;;;;20.45;9.00;;;;;;;-4.60;70.41;96717.81;2077625;28;20204;-64
2022/03/05 04:34:21;;;;;;;20.10;8.73;;;;;;;-4.70;70.81;96706.78;2076465;28;20204;-64
2022/03/05 04:35:23;;;;;;;17.33;7.65;;;;;;;-4.73;70.96;96717.03;2073779;28;20217;-65
2022/03/05 04:36:24;;;;;;;21.02;9.45;;;;;;;-4.78;71.26;96711.94;2077200;28;20197;-64
2022/03/05 04:37:26;;;;;;;17.92;8.40;;;;;;;-4.75;71.39;96715.34;2076015;28;20205;-65
2022/03/05 04:38:28;;;;;;;20.33;9.25;;;;;;;-4.78;70.89;96716.22;2074472;28;20645;-65
2022/03/05 04:39:29;;;;;;;17.65;8.77;;;;;;;-4.79;71.36;96714.50;2076927;28;20194;-65
2022/03/05 04:40:31;;;;;;;14.75;8.98;;;;;;;-4.77;71.42;96718.75;2077867;28;20225;-65
2022/03/05 04:41:32;;;;;;;21.52;8.52;;;;;;;-4.79;71.68;96712.78;2072517;28;20209;-64
2022/03/05 04:42:34;;;;;;;13.88;8.73;;;;;;;-4.61;71.12;96719.47;2076459;28;20202;-64
2022/03/05 04:43:35;;;;;;;36.58;8.20;;;;;;;-4.42;70.05;96719.38;2077860;28;20201;-65
2022/03/05 04:44:37;;;;;;;16.73;8.60;;;;;;;-4.48;70.17;96720.25;2076102;28;20660;-64
2022/03/05 04:45:40;;;;;;;16.90;7.80;;;;;;;-4.47;70.31;96721.97;2076761;28;20207;-64
2022/03/05 04:46:41;;;;;;;15.60;8.40;;;;;;;-4.62;70.41;96722.91;2076356;28;20556;-64
2022/03/05 04:47:48;;;;;;;18.80;8.48;;;;;;;-4.76;70.50;96724.72;2077852;28;20202;-65
2022/03/05 04:48:49;;;;;;;16.90;8.00;;;;;;;-4.72;70.58;96720.41;2078524;28;20201;-64